sensor_id;sensor_type;location;lat;lon;timestamp;P1;durP1;ratioP1;P2;durP2;ratioP2
10661;SDS011;5379;51.034;7.006;2023-02-20T00:00:48;2.70;;;2.50;;
10661;SDS011;5379;51.034;7.006;2023-02-20T00:03:15;4.20;;;3.77;;
10661;SDS011;5379;51.034;7.006;2023-02-20T00:05:42;2.47;;;2.33;;
10661;SDS011;5379;51.034;7.006;2023-02-20T00:08:09;2.93;;;2.70;;
10661;SDS011;5379;51.034;7.006;2023-02-20T00:10:36;3.67;;;3.23;;
10661;SDS011;5379;51.034;7.006;2023-02-20T00:13:03;3.67;;;3.37;;
10661;SDS011;5379;51.034;7.006;2023-02-20T00:15:31;4.53;;;3.20;;
10661;SDS011;5379;51.034;7.006;2023-02-20T00:17:59;3.73;;;3.37;;
10661;SDS011;5379;51.034;7.006;2023-02-20T00:20:26;3.30;;;3.00;;
10661;SDS011;5379;51.034;7.006;2023-02-20T00:22:54;3.73;;;3.43;;
10661;SDS011;5379;51.034;7.006;2023-02-20T00:25:21;4.57;;;3.50;;
10661;SDS011;5379;51.034;7.006;2023-02-20T00:27:48;7.13;;;3.70;;
10661;SDS011;5379;51.034;7.006;2023-02-20T00:30:16;3.93;;;3.57;;
10661;SDS011;5379;51.034;7.006;2023-02-20T00:32:45;3.40;;;2.87;;
10661;SDS011;5379;51.034;7.006;2023-02-20T00:35:14;6.20;;;3.53;;
10661;SDS011;5379;51.034;7.006;2023-02-20T00:37:41;5.37;;;3.00;;
10661;SDS011;5379;51.034;7.006;2023-02-20T00:40:09;4.43;;;3.33;;
10661;SDS011;5379;51.034;7.006;2023-02-20T00:42:36;3.63;;;3.33;;
10661;SDS011;5379;51.034;7.006;2023-02-20T00:45:03;4.70;;;3.73;;
10661;SDS011;5379;51.034;7.006;2023-02-20T00:47:31;4.97;;;4.27;;
10661;SDS011;5379;51.034;7.006;2023-02-20T00:49:58;4.00;;;3.63;;
10661;SDS011;5379;51.034;7.006;2023-02-20T00:52:26;4.70;;;4.07;;
10661;SDS011;5379;51.034;7.006;2023-02-20T00:54:53;4.80;;;4.30;;
10661;SDS011;5379;51.034;7.006;2023-02-20T00:57:20;4.40;;;4.00;;
10661;SDS011;5379;51.034;7.006;2023-02-20T00:59:47;5.27;;;4.77;;
10661;SDS011;5379;51.034;7.006;2023-02-20T05:30:46;7.73;;;5.67;;
10661;SDS011;5379;51.034;7.006;2023-02-20T05:33:13;8.50;;;5.50;;
10661;SDS011;5379;51.034;7.006;2023-02-20T05:35:40;9.03;;;5.80;;
10661;SDS011;5379;51.034;7.006;2023-02-20T05:38:07;5.63;;;5.13;;
10661;SDS011;5379;51.034;7.006;2023-02-20T05:40:34;9.30;;;5.40;;
10661;SDS011;5379;51.034;7.006;2023-02-20T05:43:01;6.43;;;5.27;;
10661;SDS011;5379;51.034;7.006;2023-02-20T05:45:28;7.03;;;6.00;;
10661;SDS011;5379;51.034;7.006;2023-02-20T05:47:56;12.17;;;5.40;;
10661;SDS011;5379;51.034;7.006;2023-02-20T05:50:23;6.33;;;5.70;;
10661;SDS011;5379;51.034;7.006;2023-02-20T05:52:50;9.10;;;5.53;;
10661;SDS011;5379;51.034;7.006;2023-02-20T05:55:17;7.97;;;6.30;;
10661;SDS011;5379;51.034;7.006;2023-02-20T05:57:44;9.83;;;6.20;;
10661;SDS011;5379;51.034;7.006;2023-02-20T06:00:12;9.73;;;5.50;;
10661;SDS011;5379;51.034;7.006;2023-02-20T06:02:39;7.53;;;5.77;;
10661;SDS011;5379;51.034;7.006;2023-02-20T06:05:07;6.73;;;5.80;;
10661;SDS011;5379;51.034;7.006;2023-02-20T06:07:34;9.93;;;5.80;;
10661;SDS011;5379;51.034;7.006;2023-02-20T06:10:01;11.70;;;6.17;;
10661;SDS011;5379;51.034;7.006;2023-02-20T06:12:28;7.70;;;5.37;;
10661;SDS011;5379;51.034;7.006;2023-02-20T06:14:55;5.73;;;5.13;;
10661;SDS011;5379;51.034;7.006;2023-02-20T06:17:22;6.00;;;5.23;;
10661;SDS011;5379;51.034;7.006;2023-02-20T06:19:49;7.93;;;5.83;;
10661;SDS011;5379;51.034;7.006;2023-02-20T06:22:17;5.93;;;5.43;;
10661;SDS011;5379;51.034;7.006;2023-02-20T06:24:44;8.20;;;6.07;;
10661;SDS011;5379;51.034;7.006;2023-02-20T06:27:12;7.80;;;6.07;;
10661;SDS011;5379;51.034;7.006;2023-02-20T06:29:39;10.47;;;6.27;;
10661;SDS011;5379;51.034;7.006;2023-02-20T06:32:05;7.50;;;6.33;;
10661;SDS011;5379;51.034;7.006;2023-02-20T06:34:32;10.70;;;5.63;;
10661;SDS011;5379;51.034;7.006;2023-02-20T06:36:59;16.50;;;6.07;;
10661;SDS011;5379;51.034;7.006;2023-02-20T06:39:29;5.93;;;5.30;;
10661;SDS011;5379;51.034;7.006;2023-02-20T06:41:57;8.93;;;6.40;;
10661;SDS011;5379;51.034;7.006;2023-02-20T06:44:24;7.60;;;6.13;;
10661;SDS011;5379;51.034;7.006;2023-02-20T06:46:51;8.97;;;6.43;;
10661;SDS011;5379;51.034;7.006;2023-02-20T06:49:18;16.03;;;6.03;;
10661;SDS011;5379;51.034;7.006;2023-02-20T06:51:45;7.67;;;5.90;;
10661;SDS011;5379;51.034;7.006;2023-02-20T06:54:12;6.90;;;6.20;;
10661;SDS011;5379;51.034;7.006;2023-02-20T06:56:40;9.77;;;5.87;;
10661;SDS011;5379;51.034;7.006;2023-02-20T06:59:07;7.10;;;5.80;;
10661;SDS011;5379;51.034;7.006;2023-02-20T07:01:36;14.13;;;6.33;;
10661;SDS011;5379;51.034;7.006;2023-02-20T07:04:05;11.03;;;6.37;;
10661;SDS011;5379;51.034;7.006;2023-02-20T07:06:33;6.20;;;5.60;;
10661;SDS011;5379;51.034;7.006;2023-02-20T07:09:01;10.97;;;7.07;;
10661;SDS011;5379;51.034;7.006;2023-02-20T07:11:28;7.43;;;6.53;;
10661;SDS011;5379;51.034;7.006;2023-02-20T07:13:57;6.87;;;6.17;;
10661;SDS011;5379;51.034;7.006;2023-02-20T07:16:24;12.63;;;5.93;;
10661;SDS011;5379;51.034;7.006;2023-02-20T07:18:51;9.07;;;5.40;;
10661;SDS011;5379;51.034;7.006;2023-02-20T07:21:17;10.30;;;6.30;;
10661;SDS011;5379;51.034;7.006;2023-02-20T07:23:44;6.47;;;5.67;;
10661;SDS011;5379;51.034;7.006;2023-02-20T07:26:16;7.63;;;6.37;;
10661;SDS011;5379;51.034;7.006;2023-02-20T07:28:44;7.77;;;5.97;;
10661;SDS011;5379;51.034;7.006;2023-02-20T07:31:12;8.77;;;6.50;;
10661;SDS011;5379;51.034;7.006;2023-02-20T07:33:39;7.73;;;6.93;;
10661;SDS011;5379;51.034;7.006;2023-02-20T07:36:07;11.07;;;6.53;;
10661;SDS011;5379;51.034;7.006;2023-02-20T07:38:35;10.87;;;7.20;;
10661;SDS011;5379;51.034;7.006;2023-02-20T07:41:02;9.67;;;6.57;;
10661;SDS011;5379;51.034;7.006;2023-02-20T07:43:29;7.27;;;6.57;;
10661;SDS011;5379;51.034;7.006;2023-02-20T07:45:56;7.30;;;6.50;;
10661;SDS011;5379;51.034;7.006;2023-02-20T07:48:25;9.47;;;6.20;;
10661;SDS011;5379;51.034;7.006;2023-02-20T07:50:51;13.60;;;6.13;;
10661;SDS011;5379;51.034;7.006;2023-02-20T07:53:19;15.53;;;6.33;;
10661;SDS011;5379;51.034;7.006;2023-02-20T07:55:46;4.53;;;4.13;;
10661;SDS011;5379;51.034;7.006;2023-02-20T07:58:13;6.87;;;4.50;;
10661;SDS011;5379;51.034;7.006;2023-02-20T08:00:40;4.40;;;3.97;;
10661;SDS011;5379;51.034;7.006;2023-02-20T08:03:07;5.13;;;4.60;;
10661;SDS011;5379;51.034;7.006;2023-02-20T08:05:35;6.73;;;4.80;;
10661;SDS011;5379;51.034;7.006;2023-02-20T08:08:03;4.83;;;4.33;;
10661;SDS011;5379;51.034;7.006;2023-02-20T08:10:30;7.07;;;4.30;;
10661;SDS011;5379;51.034;7.006;2023-02-20T08:12:57;10.50;;;4.00;;
10661;SDS011;5379;51.034;7.006;2023-02-20T08:15:24;6.40;;;4.07;;
10661;SDS011;5379;51.034;7.006;2023-02-20T08:17:50;6.43;;;5.13;;
10661;SDS011;5379;51.034;7.006;2023-02-20T08:20:18;5.63;;;4.87;;
10661;SDS011;5379;51.034;7.006;2023-02-20T08:22:48;6.97;;;4.57;;
10661;SDS011;5379;51.034;7.006;2023-02-20T08:25:16;5.67;;;5.00;;
10661;SDS011;5379;51.034;7.006;2023-02-20T08:27:44;12.13;;;5.10;;
10661;SDS011;5379;51.034;7.006;2023-02-20T08:30:12;8.60;;;5.37;;
10661;SDS011;5379;51.034;7.006;2023-02-20T08:32:43;5.40;;;4.90;;
10661;SDS011;5379;51.034;7.006;2023-02-20T08:35:10;7.27;;;5.33;;
10661;SDS011;5379;51.034;7.006;2023-02-20T08:37:37;6.80;;;5.60;;
10661;SDS011;5379;51.034;7.006;2023-02-20T08:40:06;7.00;;;5.10;;
10661;SDS011;5379;51.034;7.006;2023-02-20T08:42:34;9.07;;;5.03;;
10661;SDS011;5379;51.034;7.006;2023-02-20T08:45:02;7.87;;;4.17;;
10661;SDS011;5379;51.034;7.006;2023-02-20T08:47:30;7.67;;;4.63;;
10661;SDS011;5379;51.034;7.006;2023-02-20T08:49:58;8.47;;;4.03;;
10661;SDS011;5379;51.034;7.006;2023-02-20T08:52:25;5.90;;;4.37;;
10661;SDS011;5379;51.034;7.006;2023-02-20T08:54:52;5.40;;;4.67;;
10661;SDS011;5379;51.034;7.006;2023-02-20T08:57:20;6.97;;;4.03;;
10661;SDS011;5379;51.034;7.006;2023-02-20T08:59:47;9.07;;;4.37;;
10661;SDS011;5379;51.034;7.006;2023-02-20T09:02:15;4.33;;;3.93;;
10661;SDS011;5379;51.034;7.006;2023-02-20T09:04:43;3.83;;;3.17;;
10661;SDS011;5379;51.034;7.006;2023-02-20T09:07:10;4.87;;;3.97;;
10661;SDS011;5379;51.034;7.006;2023-02-20T09:09:37;8.77;;;4.20;;
10661;SDS011;5379;51.034;7.006;2023-02-20T09:12:05;3.87;;;3.30;;
10661;SDS011;5379;51.034;7.006;2023-02-20T09:14:34;5.13;;;3.50;;
10661;SDS011;5379;51.034;7.006;2023-02-20T09:17:01;3.90;;;3.53;;
10661;SDS011;5379;51.034;7.006;2023-02-20T09:19:29;4.30;;;3.90;;
10661;SDS011;5379;51.034;7.006;2023-02-20T09:21:55;4.40;;;3.80;;
10661;SDS011;5379;51.034;7.006;2023-02-20T09:24:22;5.20;;;4.13;;
10661;SDS011;5379;51.034;7.006;2023-02-20T09:26:52;4.33;;;3.90;;
10661;SDS011;5379;51.034;7.006;2023-02-20T09:29:19;15.73;;;4.67;;
10661;SDS011;5379;51.034;7.006;2023-02-20T09:31:47;6.60;;;4.37;;
10661;SDS011;5379;51.034;7.006;2023-02-20T09:34:14;6.80;;;4.30;;
10661;SDS011;5379;51.034;7.006;2023-02-20T09:36:41;5.57;;;5.00;;
10661;SDS011;5379;51.034;7.006;2023-02-20T09:39:08;11.33;;;5.83;;
10661;SDS011;5379;51.034;7.006;2023-02-20T09:41:37;11.50;;;5.93;;
10661;SDS011;5379;51.034;7.006;2023-02-20T09:44:14;6.40;;;5.67;;
10661;SDS011;5379;51.034;7.006;2023-02-20T09:46:48;6.63;;;5.77;;
10661;SDS011;5379;51.034;7.006;2023-02-20T09:49:18;7.70;;;5.87;;
10661;SDS011;5379;51.034;7.006;2023-02-20T09:51:51;9.97;;;4.63;;
10661;SDS011;5379;51.034;7.006;2023-02-20T09:54:21;8.17;;;6.03;;
10661;SDS011;5379;51.034;7.006;2023-02-20T09:56:53;12.37;;;6.13;;
10661;SDS011;5379;51.034;7.006;2023-02-20T09:59:24;6.97;;;6.00;;
10661;SDS011;5379;51.034;7.006;2023-02-20T10:01:56;10.10;;;5.70;;
10661;SDS011;5379;51.034;7.006;2023-02-20T10:04:27;6.33;;;5.70;;
10661;SDS011;5379;51.034;7.006;2023-02-20T10:07:00;6.07;;;5.33;;
10661;SDS011;5379;51.034;7.006;2023-02-20T10:09:37;9.83;;;5.90;;
10661;SDS011;5379;51.034;7.006;2023-02-20T10:12:06;10.17;;;5.50;;
10661;SDS011;5379;51.034;7.006;2023-02-20T10:14:51;6.23;;;4.40;;
10661;SDS011;5379;51.034;7.006;2023-02-20T10:17:39;6.90;;;5.17;;
10661;SDS011;5379;51.034;7.006;2023-02-20T10:20:14;8.30;;;5.10;;
10661;SDS011;5379;51.034;7.006;2023-02-20T10:22:50;7.73;;;4.73;;
10661;SDS011;5379;51.034;7.006;2023-02-20T10:25:23;8.13;;;5.40;;
10661;SDS011;5379;51.034;7.006;2023-02-20T10:27:55;4.73;;;4.33;;
10661;SDS011;5379;51.034;7.006;2023-02-20T10:30:28;12.83;;;5.60;;
10661;SDS011;5379;51.034;7.006;2023-02-20T10:33:00;11.27;;;5.63;;
10661;SDS011;5379;51.034;7.006;2023-02-20T10:35:37;10.37;;;6.50;;
10661;SDS011;5379;51.034;7.006;2023-02-20T10:38:08;6.57;;;5.90;;
10661;SDS011;5379;51.034;7.006;2023-02-20T10:40:38;8.20;;;6.63;;
10661;SDS011;5379;51.034;7.006;2023-02-20T10:43:10;9.13;;;7.20;;
10661;SDS011;5379;51.034;7.006;2023-02-20T10:45:43;10.10;;;7.10;;
10661;SDS011;5379;51.034;7.006;2023-02-20T10:48:18;6.60;;;6.00;;
10661;SDS011;5379;51.034;7.006;2023-02-20T10:50:49;7.50;;;6.13;;
10661;SDS011;5379;51.034;7.006;2023-02-20T10:53:26;7.67;;;6.73;;
10661;SDS011;5379;51.034;7.006;2023-02-20T10:55:59;9.60;;;6.93;;
10661;SDS011;5379;51.034;7.006;2023-02-20T10:58:32;9.17;;;6.57;;
10661;SDS011;5379;51.034;7.006;2023-02-20T11:01:05;10.93;;;8.07;;
10661;SDS011;5379;51.034;7.006;2023-02-20T11:03:38;7.30;;;5.93;;
10661;SDS011;5379;51.034;7.006;2023-02-20T11:06:12;7.40;;;6.47;;
10661;SDS011;5379;51.034;7.006;2023-02-20T11:08:41;9.73;;;6.10;;
10661;SDS011;5379;51.034;7.006;2023-02-20T11:11:26;11.30;;;5.93;;
10661;SDS011;5379;51.034;7.006;2023-02-20T11:13:57;10.10;;;6.17;;
10661;SDS011;5379;51.034;7.006;2023-02-20T11:16:26;6.23;;;5.63;;
10661;SDS011;5379;51.034;7.006;2023-02-20T11:19:02;12.97;;;6.70;;
10661;SDS011;5379;51.034;7.006;2023-02-20T11:21:36;7.03;;;6.30;;
10661;SDS011;5379;51.034;7.006;2023-02-20T11:26:59;10.03;;;6.60;;
10661;SDS011;5379;51.034;7.006;2023-02-20T11:29:30;6.97;;;6.10;;
10661;SDS011;5379;51.034;7.006;2023-02-20T11:35:10;8.97;;;6.27;;
10661;SDS011;5379;51.034;7.006;2023-02-20T11:40:44;7.63;;;6.73;;
10661;SDS011;5379;51.034;7.006;2023-02-20T11:43:14;10.50;;;8.03;;
10661;SDS011;5379;51.034;7.006;2023-02-20T11:45:46;8.93;;;7.67;;
10661;SDS011;5379;51.034;7.006;2023-02-20T11:48:14;11.83;;;7.60;;
10661;SDS011;5379;51.034;7.006;2023-02-20T11:50:44;9.10;;;6.43;;
10661;SDS011;5379;51.034;7.006;2023-02-20T11:53:17;9.03;;;6.77;;
10661;SDS011;5379;51.034;7.006;2023-02-20T11:55:46;16.93;;;7.03;;
10661;SDS011;5379;51.034;7.006;2023-02-20T11:58:20;6.00;;;5.50;;
10661;SDS011;5379;51.034;7.006;2023-02-20T12:00:49;11.33;;;6.23;;
10661;SDS011;5379;51.034;7.006;2023-02-20T12:03:19;8.50;;;6.63;;
10661;SDS011;5379;51.034;7.006;2023-02-20T12:05:49;6.03;;;5.43;;
10661;SDS011;5379;51.034;7.006;2023-02-20T12:08:22;8.37;;;6.13;;
10661;SDS011;5379;51.034;7.006;2023-02-20T12:11:05;5.50;;;5.00;;
10661;SDS011;5379;51.034;7.006;2023-02-20T12:13:36;10.77;;;5.70;;
10661;SDS011;5379;51.034;7.006;2023-02-20T12:16:07;5.67;;;5.17;;
10661;SDS011;5379;51.034;7.006;2023-02-20T12:18:55;7.10;;;5.43;;
10661;SDS011;5379;51.034;7.006;2023-02-20T12:21:38;3.80;;;3.37;;
10661;SDS011;5379;51.034;7.006;2023-02-20T12:24:27;6.57;;;4.40;;
10661;SDS011;5379;51.034;7.006;2023-02-20T12:27:07;12.77;;;5.63;;
10661;SDS011;5379;51.034;7.006;2023-02-20T12:29:49;11.50;;;5.93;;
10661;SDS011;5379;51.034;7.006;2023-02-20T12:32:26;6.63;;;5.93;;
10661;SDS011;5379;51.034;7.006;2023-02-20T12:35:03;6.13;;;5.53;;
10661;SDS011;5379;51.034;7.006;2023-02-20T12:37:47;6.07;;;5.53;;
10661;SDS011;5379;51.034;7.006;2023-02-20T12:40:26;6.00;;;4.77;;
10661;SDS011;5379;51.034;7.006;2023-02-20T12:43:02;6.70;;;6.00;;
10661;SDS011;5379;51.034;7.006;2023-02-20T12:45:40;8.47;;;6.57;;
10661;SDS011;5379;51.034;7.006;2023-02-20T12:48:13;16.23;;;6.93;;
10661;SDS011;5379;51.034;7.006;2023-02-20T12:50:51;12.43;;;7.33;;
10661;SDS011;5379;51.034;7.006;2023-02-20T12:53:38;15.47;;;5.93;;
10661;SDS011;5379;51.034;7.006;2023-02-20T12:56:23;9.77;;;7.33;;
10661;SDS011;5379;51.034;7.006;2023-02-20T12:59:00;13.73;;;7.50;;
10661;SDS011;5379;51.034;7.006;2023-02-20T13:01:32;9.40;;;6.77;;
10661;SDS011;5379;51.034;7.006;2023-02-20T13:04:01;10.53;;;7.20;;
10661;SDS011;5379;51.034;7.006;2023-02-20T13:06:33;9.20;;;6.33;;
10661;SDS011;5379;51.034;7.006;2023-02-20T13:09:06;13.63;;;7.83;;
10661;SDS011;5379;51.034;7.006;2023-02-20T13:11:41;9.90;;;7.23;;
10661;SDS011;5379;51.034;7.006;2023-02-20T13:14:22;9.93;;;6.83;;
10661;SDS011;5379;51.034;7.006;2023-02-20T13:16:58;8.40;;;7.50;;
10661;SDS011;5379;51.034;7.006;2023-02-20T13:19:34;8.17;;;6.83;;
10661;SDS011;5379;51.034;7.006;2023-02-20T13:22:05;8.73;;;7.17;;
10661;SDS011;5379;51.034;7.006;2023-02-20T13:24:34;8.40;;;6.57;;
10661;SDS011;5379;51.034;7.006;2023-02-20T13:27:02;7.27;;;6.20;;
10661;SDS011;5379;51.034;7.006;2023-02-20T13:29:32;11.13;;;6.20;;
10661;SDS011;5379;51.034;7.006;2023-02-20T13:32:02;9.10;;;5.60;;
10661;SDS011;5379;51.034;7.006;2023-02-20T13:34:49;8.10;;;4.87;;
10661;SDS011;5379;51.034;7.006;2023-02-20T13:40:41;5.17;;;4.53;;
10661;SDS011;5379;51.034;7.006;2023-02-20T13:43:23;6.40;;;5.47;;
10661;SDS011;5379;51.034;7.006;2023-02-20T13:46:07;12.50;;;5.93;;
10661;SDS011;5379;51.034;7.006;2023-02-20T13:48:38;8.63;;;5.80;;
10661;SDS011;5379;51.034;7.006;2023-02-20T13:53:58;5.73;;;5.13;;
10661;SDS011;5379;51.034;7.006;2023-02-20T13:56:46;7.27;;;5.53;;
10661;SDS011;5379;51.034;7.006;2023-02-20T13:59:19;4.00;;;3.60;;
10661;SDS011;5379;51.034;7.006;2023-02-20T14:01:52;9.37;;;5.60;;
10661;SDS011;5379;51.034;7.006;2023-02-20T14:04:21;4.93;;;4.37;;
10661;SDS011;5379;51.034;7.006;2023-02-20T14:06:49;13.23;;;6.70;;
10661;SDS011;5379;51.034;7.006;2023-02-20T14:09:18;10.77;;;6.93;;
10661;SDS011;5379;51.034;7.006;2023-02-20T14:11:49;9.77;;;5.37;;
10661;SDS011;5379;51.034;7.006;2023-02-20T14:14:23;10.17;;;7.67;;
10661;SDS011;5379;51.034;7.006;2023-02-20T14:17:02;8.10;;;6.60;;
10661;SDS011;5379;51.034;7.006;2023-02-20T14:19:33;13.77;;;6.33;;
10661;SDS011;5379;51.034;7.006;2023-02-20T14:22:22;9.70;;;6.93;;
10661;SDS011;5379;51.034;7.006;2023-02-20T14:28:10;9.23;;;6.40;;
10661;SDS011;5379;51.034;7.006;2023-02-20T14:30:40;5.50;;;4.03;;
10661;SDS011;5379;51.034;7.006;2023-02-20T14:33:18;10.00;;;5.97;;
10661;SDS011;5379;51.034;7.006;2023-02-20T14:35:54;6.93;;;4.73;;
10661;SDS011;5379;51.034;7.006;2023-02-20T14:38:40;5.90;;;5.30;;
10661;SDS011;5379;51.034;7.006;2023-02-20T14:41:16;5.70;;;5.13;;
10661;SDS011;5379;51.034;7.006;2023-02-20T14:43:53;8.17;;;5.27;;
10661;SDS011;5379;51.034;7.006;2023-02-20T14:46:23;5.83;;;4.67;;
10661;SDS011;5379;51.034;7.006;2023-02-20T14:49:02;7.87;;;5.70;;
10661;SDS011;5379;51.034;7.006;2023-02-20T14:51:31;8.13;;;6.27;;
10661;SDS011;5379;51.034;7.006;2023-02-20T14:53:58;6.93;;;6.27;;
10661;SDS011;5379;51.034;7.006;2023-02-20T14:56:27;7.23;;;6.53;;
10661;SDS011;5379;51.034;7.006;2023-02-20T14:58:56;10.10;;;7.67;;
10661;SDS011;5379;51.034;7.006;2023-02-20T15:01:32;8.23;;;6.70;;
10661;SDS011;5379;51.034;7.006;2023-02-20T15:04:04;8.60;;;7.13;;
10661;SDS011;5379;51.034;7.006;2023-02-20T15:06:37;9.17;;;7.03;;
10661;SDS011;5379;51.034;7.006;2023-02-20T15:09:05;7.57;;;6.70;;
10661;SDS011;5379;51.034;7.006;2023-02-20T15:11:34;7.87;;;7.00;;
10661;SDS011;5379;51.034;7.006;2023-02-20T15:14:03;8.53;;;6.90;;
10661;SDS011;5379;51.034;7.006;2023-02-20T15:16:38;10.13;;;6.43;;
10661;SDS011;5379;51.034;7.006;2023-02-20T15:19:18;8.30;;;5.80;;
10661;SDS011;5379;51.034;7.006;2023-02-20T15:21:53;5.60;;;5.07;;
10661;SDS011;5379;51.034;7.006;2023-02-20T15:24:26;6.37;;;5.77;;
10661;SDS011;5379;51.034;7.006;2023-02-20T15:27:08;9.90;;;6.57;;
10661;SDS011;5379;51.034;7.006;2023-02-20T15:29:42;7.20;;;6.47;;
10661;SDS011;5379;51.034;7.006;2023-02-20T15:32:17;6.83;;;6.13;;
10661;SDS011;5379;51.034;7.006;2023-02-20T15:34:51;6.73;;;5.97;;
10661;SDS011;5379;51.034;7.006;2023-02-20T15:37:21;7.37;;;6.13;;
10661;SDS011;5379;51.034;7.006;2023-02-20T15:39:50;6.30;;;5.60;;
10661;SDS011;5379;51.034;7.006;2023-02-20T15:42:18;10.10;;;6.67;;
10661;SDS011;5379;51.034;7.006;2023-02-20T15:44:50;6.50;;;4.37;;
10661;SDS011;5379;51.034;7.006;2023-02-20T15:47:18;6.40;;;5.80;;
10661;SDS011;5379;51.034;7.006;2023-02-20T15:49:45;9.10;;;6.07;;
10661;SDS011;5379;51.034;7.006;2023-02-20T15:52:13;11.03;;;6.57;;
10661;SDS011;5379;51.034;7.006;2023-02-20T15:54:44;6.93;;;6.23;;
10661;SDS011;5379;51.034;7.006;2023-02-20T15:57:16;7.87;;;5.23;;
10661;SDS011;5379;51.034;7.006;2023-02-20T15:59:44;7.37;;;5.53;;
10661;SDS011;5379;51.034;7.006;2023-02-20T16:02:14;6.67;;;5.27;;
10661;SDS011;5379;51.034;7.006;2023-02-20T16:04:45;5.40;;;4.77;;
10661;SDS011;5379;51.034;7.006;2023-02-20T16:07:12;8.50;;;5.00;;
10661;SDS011;5379;51.034;7.006;2023-02-20T16:09:39;7.90;;;5.13;;
10661;SDS011;5379;51.034;7.006;2023-02-20T16:12:08;6.43;;;5.03;;
10661;SDS011;5379;51.034;7.006;2023-02-20T16:14:40;5.50;;;4.50;;
10661;SDS011;5379;51.034;7.006;2023-02-20T16:17:08;11.07;;;5.17;;
10661;SDS011;5379;51.034;7.006;2023-02-20T16:19:41;5.23;;;4.73;;
10661;SDS011;5379;51.034;7.006;2023-02-20T16:22:08;4.50;;;4.07;;
10661;SDS011;5379;51.034;7.006;2023-02-20T16:24:36;9.80;;;4.87;;
10661;SDS011;5379;51.034;7.006;2023-02-20T16:27:04;4.40;;;4.00;;
10661;SDS011;5379;51.034;7.006;2023-02-20T16:29:32;6.47;;;4.10;;
10661;SDS011;5379;51.034;7.006;2023-02-20T16:32:22;6.70;;;4.40;;
10661;SDS011;5379;51.034;7.006;2023-02-20T16:34:51;5.50;;;4.47;;
10661;SDS011;5379;51.034;7.006;2023-02-20T16:37:20;9.70;;;4.53;;
10661;SDS011;5379;51.034;7.006;2023-02-20T16:39:47;4.57;;;4.10;;
10661;SDS011;5379;51.034;7.006;2023-02-20T16:42:17;5.50;;;4.53;;
10661;SDS011;5379;51.034;7.006;2023-02-20T16:44:50;4.03;;;3.70;;
10661;SDS011;5379;51.034;7.006;2023-02-20T16:47:20;7.07;;;4.40;;
10661;SDS011;5379;51.034;7.006;2023-02-20T16:49:51;7.20;;;4.90;;
10661;SDS011;5379;51.034;7.006;2023-02-20T16:52:21;4.63;;;4.17;;
10661;SDS011;5379;51.034;7.006;2023-02-20T16:54:50;4.30;;;4.00;;
10661;SDS011;5379;51.034;7.006;2023-02-20T16:57:19;4.83;;;4.30;;
10661;SDS011;5379;51.034;7.006;2023-02-20T16:59:48;7.33;;;5.33;;
10661;SDS011;5379;51.034;7.006;2023-02-20T17:02:16;6.63;;;4.33;;
10661;SDS011;5379;51.034;7.006;2023-02-20T17:04:45;5.67;;;4.07;;
10661;SDS011;5379;51.034;7.006;2023-02-20T17:07:13;5.23;;;4.10;;
10661;SDS011;5379;51.034;7.006;2023-02-20T17:09:41;6.60;;;4.93;;
10661;SDS011;5379;51.034;7.006;2023-02-20T17:12:11;12.77;;;4.07;;
10661;SDS011;5379;51.034;7.006;2023-02-20T17:14:40;6.07;;;4.50;;
10661;SDS011;5379;51.034;7.006;2023-02-20T17:17:07;6.77;;;4.53;;
10661;SDS011;5379;51.034;7.006;2023-02-20T17:19:35;6.20;;;4.47;;
10661;SDS011;5379;51.034;7.006;2023-02-20T17:22:03;15.33;;;4.90;;
10661;SDS011;5379;51.034;7.006;2023-02-20T17:24:32;4.47;;;3.73;;
10661;SDS011;5379;51.034;7.006;2023-02-20T17:26:59;6.07;;;4.73;;
10661;SDS011;5379;51.034;7.006;2023-02-20T17:29:27;8.43;;;4.37;;
10661;SDS011;5379;51.034;7.006;2023-02-20T17:31:56;4.80;;;4.37;;
10661;SDS011;5379;51.034;7.006;2023-02-20T17:34:23;5.27;;;4.77;;
10661;SDS011;5379;51.034;7.006;2023-02-20T17:36:50;5.03;;;4.53;;
10661;SDS011;5379;51.034;7.006;2023-02-20T17:39:18;8.83;;;5.10;;
10661;SDS011;5379;51.034;7.006;2023-02-20T17:41:48;6.30;;;5.47;;
10661;SDS011;5379;51.034;7.006;2023-02-20T17:44:16;6.27;;;5.63;;
10661;SDS011;5379;51.034;7.006;2023-02-20T17:46:44;9.10;;;6.40;;
10661;SDS011;5379;51.034;7.006;2023-02-20T17:49:13;11.90;;;6.37;;
10661;SDS011;5379;51.034;7.006;2023-02-20T17:51:41;8.83;;;5.90;;
10661;SDS011;5379;51.034;7.006;2023-02-20T17:54:08;12.07;;;8.03;;
10661;SDS011;5379;51.034;7.006;2023-02-20T17:56:38;9.17;;;6.80;;
10661;SDS011;5379;51.034;7.006;2023-02-20T17:59:06;10.03;;;6.77;;
10661;SDS011;5379;51.034;7.006;2023-02-20T18:01:33;7.13;;;5.77;;
10661;SDS011;5379;51.034;7.006;2023-02-20T18:04:01;10.73;;;5.07;;
10661;SDS011;5379;51.034;7.006;2023-02-20T18:06:30;6.50;;;5.50;;
10661;SDS011;5379;51.034;7.006;2023-02-20T18:08:57;20.40;;;11.83;;
10661;SDS011;5379;51.034;7.006;2023-02-20T18:11:24;20.00;;;8.03;;
10661;SDS011;5379;51.034;7.006;2023-02-20T18:13:52;10.13;;;6.83;;
10661;SDS011;5379;51.034;7.006;2023-02-20T18:16:21;8.93;;;7.97;;
10661;SDS011;5379;51.034;7.006;2023-02-20T18:18:48;15.10;;;8.77;;
10661;SDS011;5379;51.034;7.006;2023-02-20T18:21:15;7.20;;;6.37;;
10661;SDS011;5379;51.034;7.006;2023-02-20T18:23:43;7.20;;;6.03;;
10661;SDS011;5379;51.034;7.006;2023-02-20T18:26:10;8.63;;;6.77;;
10661;SDS011;5379;51.034;7.006;2023-02-20T18:28:37;9.57;;;7.03;;
10661;SDS011;5379;51.034;7.006;2023-02-20T18:31:04;10.70;;;7.07;;
10661;SDS011;5379;51.034;7.006;2023-02-20T18:33:33;11.63;;;6.43;;
10661;SDS011;5379;51.034;7.006;2023-02-20T18:36:00;14.23;;;6.80;;
10661;SDS011;5379;51.034;7.006;2023-02-20T18:38:27;7.23;;;6.53;;
10661;SDS011;5379;51.034;7.006;2023-02-20T18:40:54;8.13;;;7.10;;
10661;SDS011;5379;51.034;7.006;2023-02-20T18:43:22;6.33;;;5.77;;
10661;SDS011;5379;51.034;7.006;2023-02-20T18:45:49;8.57;;;6.37;;
10661;SDS011;5379;51.034;7.006;2023-02-20T18:48:17;11.23;;;6.40;;
10661;SDS011;5379;51.034;7.006;2023-02-20T18:50:45;6.87;;;6.20;;
10661;SDS011;5379;51.034;7.006;2023-02-20T18:53:13;6.03;;;4.03;;
10661;SDS011;5379;51.034;7.006;2023-02-20T18:55:40;5.27;;;4.53;;
10661;SDS011;5379;51.034;7.006;2023-02-20T18:58:07;7.10;;;5.00;;
10661;SDS011;5379;51.034;7.006;2023-02-20T19:00:34;5.57;;;5.07;;
10661;SDS011;5379;51.034;7.006;2023-02-20T19:03:03;5.37;;;4.93;;
10661;SDS011;5379;51.034;7.006;2023-02-20T19:05:30;8.03;;;4.70;;
10661;SDS011;5379;51.034;7.006;2023-02-20T19:07:58;6.80;;;4.33;;
10661;SDS011;5379;51.034;7.006;2023-02-20T19:10:28;5.97;;;5.03;;
10661;SDS011;5379;51.034;7.006;2023-02-20T19:12:55;5.33;;;4.77;;
10661;SDS011;5379;51.034;7.006;2023-02-20T19:15:22;5.43;;;4.80;;
10661;SDS011;5379;51.034;7.006;2023-02-20T19:17:50;5.87;;;5.10;;
10661;SDS011;5379;51.034;7.006;2023-02-20T19:20:19;3.70;;;3.40;;
10661;SDS011;5379;51.034;7.006;2023-02-20T19:22:47;7.03;;;5.63;;
10661;SDS011;5379;51.034;7.006;2023-02-20T19:25:16;5.73;;;5.10;;
10661;SDS011;5379;51.034;7.006;2023-02-20T19:27:44;6.40;;;5.07;;
10661;SDS011;5379;51.034;7.006;2023-02-20T19:30:11;6.20;;;4.97;;
10661;SDS011;5379;51.034;7.006;2023-02-20T19:32:38;6.43;;;4.93;;
10661;SDS011;5379;51.034;7.006;2023-02-20T19:35:05;5.40;;;4.87;;
10661;SDS011;5379;51.034;7.006;2023-02-20T19:37:33;5.23;;;4.37;;
10661;SDS011;5379;51.034;7.006;2023-02-20T19:40:00;7.03;;;5.43;;
10661;SDS011;5379;51.034;7.006;2023-02-20T19:42:29;6.13;;;4.57;;
10661;SDS011;5379;51.034;7.006;2023-02-20T19:44:55;4.20;;;3.90;;
10661;SDS011;5379;51.034;7.006;2023-02-20T19:47:22;4.47;;;4.07;;
10661;SDS011;5379;51.034;7.006;2023-02-20T19:49:51;4.70;;;4.27;;
10661;SDS011;5379;51.034;7.006;2023-02-20T19:52:18;4.30;;;3.90;;
10661;SDS011;5379;51.034;7.006;2023-02-20T19:54:46;5.87;;;4.40;;
10661;SDS011;5379;51.034;7.006;2023-02-20T19:57:13;5.77;;;4.70;;
10661;SDS011;5379;51.034;7.006;2023-02-20T19:59:41;5.00;;;4.50;;
10661;SDS011;5379;51.034;7.006;2023-02-20T20:02:09;5.07;;;3.43;;